Time;durP1;ratioP1;P1;durP2;ratioP2;P2;SDS_P1;SDS_P2;PMS_P1;PMS_P2;Temp;Humidity;BMP_temperature;BMP_pressure;BME280_temperature;BME280_humidity;BME280_pressure;Samples;Min_cycle;Max_cycle;Signal;HPM_P1;HPM_P2
2023/08/27 00:01:09;;;;;;;;;1.00;1.00;;;;;17.46;64.29;100401.47;6222376;22;45619;-88
2023/08/27 00:03:35;;;;;;;;;1.00;1.00;;;;;17.44;63.39;100386.44;6220890;22;45455;-83
2023/08/27 00:06:00;;;;;;;;;0.00;0.00;;;;;17.41;63.95;100382.19;6220278;22;45218;-82
2023/08/27 00:08:25;;;;;;;;;0.00;0.00;;;;;17.43;63.75;100396.31;6202884;22;45555;-86
2023/08/27 00:10:59;;;;;;;;;1.00;1.00;;;;;17.31;63.81;100390.19;6217867;22;45422;-85
2023/08/27 00:13:24;;;;;;;;;0.00;0.00;;;;;17.10;63.78;100354.47;6218588;22;45303;-86
2023/08/27 00:15:50;;;;;;;;;2.00;2.00;;;;;17.43;63.69;100390.09;6221380;22;45147;-86
2023/08/27 00:18:15;;;;;;;;;0.67;0.67;;;;;17.35;63.90;100371.97;6225643;22;45508;-85
2023/08/27 00:20:41;;;;;;;;;1.00;1.00;;;;;17.23;63.67;100359.63;6226693;22;45319;-85
2023/08/27 00:23:08;;;;;;;;;1.00;1.00;;;;;17.33;64.40;100399.00;6234872;22;45327;-85
2023/08/27 00:25:34;;;;;;;;;1.00;1.00;;;;;17.31;64.32;100394.72;6234047;22;44728;-85
2023/08/27 00:27:59;;;;;;;;;0.67;0.67;;;;;17.24;64.71;100380.97;6236945;22;44778;-82
2023/08/27 00:30:25;;;;;;;;;1.00;1.00;;;;;17.22;64.83;100368.66;6238939;22;45398;-84
2023/08/27 00:32:50;;;;;;;;;2.33;2.00;;;;;17.37;64.55;100402.25;6232926;22;45236;-85
2023/08/27 00:35:15;;;;;;;;;2.00;0.00;;;;;17.28;63.83;100392.31;6223121;22;45391;-83
2023/08/27 00:37:41;;;;;;;;;0.33;0.33;;;;;17.23;64.27;100381.13;6222916;22;45244;-84
2023/08/27 00:40:07;;;;;;;;;1.00;1.00;;;;;16.77;64.54;100312.56;6219806;22;46210;-86
2023/08/27 00:42:32;;;;;;;;;1.00;1.00;;;;;17.08;64.47;100359.13;6214094;22;45184;-84
2023/08/27 00:44:57;;;;;;;;;0.00;0.00;;;;;17.05;65.05;100360.22;6215594;22;45234;-85
2023/08/27 00:47:23;;;;;;;;;1.00;1.00;;;;;17.09;65.76;100367.03;6215910;22;45188;-86
2023/08/27 00:49:49;;;;;;;;;2.00;0.00;;;;;17.16;65.57;100383.47;6217532;22;45155;-85
2023/08/27 00:52:16;;;;;;;;;1.00;1.00;;;;;17.17;66.63;100382.47;6217060;22;45214;-86
2023/08/27 00:54:42;;;;;;;;;1.33;1.33;;;;;17.12;66.75;100383.88;6220400;22;45391;-86
2023/08/27 00:57:08;;;;;;;;;2.67;1.00;;;;;17.09;66.80;100383.16;6218441;22;45319;-86
2023/08/27 00:59:34;;;;;;;;;2.00;2.00;;;;;17.03;67.02;100377.44;6215824;22;47100;-85
2023/08/27 01:02:00;;;;;;;;;1.00;1.00;;;;;17.08;67.32;100384.16;6219143;22;45244;-85
2023/08/27 01:04:26;;;;;;;;;1.00;1.00;;;;;17.00;67.29;100364.28;6219875;22;45378;-88
2023/08/27 01:06:51;;;;;;;;;1.00;1.00;;;;;17.04;67.55;100382.69;6221742;22;45206;-88
2023/08/27 01:09:29;;;;;;;;;1.00;1.00;;;;;17.06;66.70;100380.75;6221225;22;45286;-88
2023/08/27 01:12:13;;;;;;;;;1.67;1.67;;;;;17.17;66.88;100390.53;6193109;22;45404;-86
2023/08/27 01:14:43;;;;;;;;;1.00;1.00;;;;;16.86;66.68;100344.00;6225669;22;45324;-88
2023/08/27 01:17:11;;;;;;;;;1.00;1.00;;;;;16.84;66.84;100345.97;6224892;22;45400;-86
2023/08/27 01:19:36;;;;;;;;;1.00;1.00;;;;;17.05;67.07;100386.22;6221759;22;46193;-85
2023/08/27 01:22:02;;;;;;;;;3.00;1.67;;;;;16.98;67.22;100388.59;6195588;22;45215;-87
2023/08/27 01:24:27;;;;;;;;;4.00;3.00;;;;;16.99;67.50;100393.00;6223266;22;45439;-86
2023/08/27 01:27:07;;;;;;;;;1.00;1.00;;;;;17.03;67.39;100389.03;6229449;22;45135;-89
2023/08/27 01:29:43;;;;;;;;;1.00;1.00;;;;;17.01;67.51;100391.03;6222135;22;45361;-86
2023/08/27 01:32:20;;;;;;;;;1.00;1.00;;;;;17.03;66.94;100383.66;6221257;22;45368;-86
2023/08/27 01:34:47;;;;;;;;;1.00;1.00;;;;;17.02;66.50;100378.44;6222210;22;45359;-88
2023/08/27 01:37:13;;;;;;;;;1.00;1.00;;;;;16.99;66.25;100376.03;6221052;22;45557;-84
2023/08/27 01:39:39;;;;;;;;;1.00;1.00;;;;;16.87;66.20;100355.59;6221817;22;45284;-87
2023/08/27 01:42:05;;;;;;;;;0.67;0.67;;;;;16.84;66.24;100345.97;6222255;22;45223;-84
2023/08/27 01:44:31;;;;;;;;;1.00;1.00;;;;;17.01;66.02;100372.22;6222501;22;45356;-85
2023/08/27 01:46:56;;;;;;;;;0.00;0.00;;;;;16.80;66.61;100345.38;6196204;22;45308;-86
2023/08/27 01:49:21;;;;;;;;;1.00;1.00;;;;;16.91;66.91;100375.81;6221914;22;44867;-88
2023/08/27 01:51:47;;;;;;;;;0.00;0.00;;;;;16.64;67.09;100333.34;6222318;22;49277;-83
2023/08/27 01:54:13;;;;;;;;;1.00;1.00;;;;;16.91;67.43;100379.34;6223310;22;45256;-86
2023/08/27 01:56:38;;;;;;;;;0.00;0.00;;;;;16.55;67.41;100321.59;6223759;22;45349;-84
2023/08/27 01:59:04;;;;;;;;;1.00;1.00;;;;;16.87;67.87;100382.44;6223423;22;48350;-85
2023/08/27 02:01:29;;;;;;;;;1.00;1.00;;;;;16.79;68.07;100369.66;6222491;22;45344;-85
2023/08/27 02:03:54;;;;;;;;;1.00;1.00;;;;;16.57;67.97;100338.41;6222464;22;45426;-86
2023/08/27 02:06:20;;;;;;;;;0.00;0.00;;;;;16.44;68.63;100332.38;6222733;22;45193;-87
2023/08/27 02:08:45;;;;;;;;;1.00;1.00;;;;;16.74;68.91;100382.63;6221190;22;45753;-86
2023/08/27 02:11:11;;;;;;;;;1.00;0.00;;;;;16.62;68.98;100375.59;6223322;22;63717;-87
2023/08/27 02:13:36;;;;;;;;;1.00;1.00;;;;;16.55;68.85;100356.47;6227857;22;45372;-87
2023/08/27 02:16:01;;;;;;;;;1.00;1.00;;;;;16.66;69.38;100382.41;6228573;22;44731;-85
2023/08/27 02:18:26;;;;;;;;;0.33;0.33;;;;;16.50;68.79;100364.91;6223900;22;45276;-84
2023/08/27 02:20:54;;;;;;;;;1.67;1.00;;;;;16.50;69.19;100364.91;6218486;22;45146;-85
2023/08/27 02:23:20;;;;;;;;;1.00;1.00;;;;;16.61;68.94;100390.00;6218127;22;45245;-85
2023/08/27 02:25:45;;;;;;;;;1.00;1.00;;;;;16.57;68.92;100377.81;6216882;22;45246;-84
2023/08/27 02:28:10;;;;;;;;;0.00;0.00;;;;;16.59;69.26;100391.97;6217427;22;54555;-85
2023/08/27 02:30:36;;;;;;;;;2.00;1.00;;;;;16.44;68.84;100369.94;6217016;22;45198;-85
2023/08/27 02:33:01;;;;;;;;;1.00;1.00;;;;;16.12;69.34;100327.00;6216104;22;55574;-85
2023/08/27 02:35:26;;;;;;;;;0.00;0.00;;;;;16.59;69.62;100387.44;6217262;22;45512;-85
2023/08/27 02:37:52;;;;;;;;;1.00;1.00;;;;;16.43;69.53;100360.19;6217636;22;45900;-84
2023/08/27 02:40:17;;;;;;;;;0.00;0.00;;;;;16.51;69.40;100371.13;6223771;22;45295;-84
2023/08/27 02:42:43;;;;;;;;;3.00;1.00;;;;;16.49;69.42;100371.25;6221719;22;45311;-84
2023/08/27 02:45:09;;;;;;;;;0.33;0.33;;;;;16.51;69.79;100371.13;6221700;22;45533;-86
2023/08/27 02:47:34;;;;;;;;;1.33;1.00;;;;;16.49;69.72;100379.31;6224407;22;45205;-86
2023/08/27 02:49:59;;;;;;;;;1.67;1.67;;;;;16.45;69.66;100372.50;6221738;22;64117;-86
2023/08/27 02:52:24;;;;;;;;;0.00;0.00;;;;;16.42;69.58;100372.78;6220737;22;52240;-86
2023/08/27 02:54:50;;;;;;;;;2.33;1.00;;;;;16.40;69.69;100371.16;6225504;22;52556;-85
2023/08/27 02:57:15;;;;;;;;;1.00;1.00;;;;;16.24;69.90;100358.19;6223204;22;45363;-84
2023/08/27 02:59:40;;;;;;;;;1.00;1.00;;;;;16.24;70.15;100374.28;6224728;22;45229;-86
2023/08/27 03:02:06;;;;;;;;;1.00;1.00;;;;;16.31;69.95;100380.84;6222683;22;55731;-87
2023/08/27 03:04:31;;;;;;;;;0.67;0.67;;;;;16.25;70.25;100389.41;6222302;22;45554;-87
2023/08/27 03:06:56;;;;;;;;;1.33;1.00;;;;;15.98;70.54;100356.81;6222556;22;45226;-87
2023/08/27 03:09:22;;;;;;;;;1.00;1.00;;;;;16.19;70.79;100389.94;6216598;22;53206;-89
2023/08/27 03:11:47;;;;;;;;;1.33;0.00;;;;;15.94;70.87;100361.59;6227344;22;45212;-84
2023/08/27 03:14:12;;;;;;;;;1.00;1.00;;;;;15.81;70.86;100356.38;6224537;22;45517;-89
2023/08/27 03:16:38;;;;;;;;;0.67;0.67;;;;;16.01;71.13;100372.66;6226153;22;45833;-88
2023/08/27 03:19:04;;;;;;;;;0.33;0.00;;;;;15.97;71.01;100387.28;6224753;22;45152;-87
2023/08/27 03:21:29;;;;;;;;;1.00;1.00;;;;;15.76;71.41;100353.22;6226405;22;45702;-86
2023/08/27 03:23:55;;;;;;;;;3.00;3.00;;;;;15.93;71.16;100384.88;6229288;22;44776;-85
2023/08/27 03:26:20;;;;;;;;;1.00;1.00;;;;;15.90;71.42;100395.00;6222243;22;46106;-85
2023/08/27 03:28:46;;;;;;;;;1.00;1.00;;;;;15.80;71.98;100378.81;6217050;22;45173;-86
2023/08/27 03:31:11;;;;;;;;;0.00;0.00;;;;;15.88;71.59;100395.09;6222834;22;45308;-86
2023/08/27 03:33:37;;;;;;;;;2.00;2.00;;;;;15.72;72.50;100377.72;6217430;22;45265;-88
2023/08/27 03:36:03;;;;;;;;;1.00;1.00;;;;;15.79;72.18;100400.38;6220137;22;45235;-85
2023/08/27 03:38:29;;;;;;;;;2.00;0.67;;;;;15.58;72.45;100368.06;6224839;22;45270;-85
2023/08/27 03:40:54;;;;;;;;;2.00;1.00;;;;;15.72;72.39;100393.78;6216450;22;45343;-85
2023/08/27 03:43:19;;;;;;;;;1.00;1.00;;;;;15.77;72.42;100403.19;6219306;22;45470;-87
2023/08/27 03:45:45;;;;;;;;;1.00;1.00;;;;;15.66;72.61;100395.16;6213786;22;47308;-87
2023/08/27 03:48:10;;;;;;;;;2.00;2.00;;;;;15.76;72.38;100409.53;6220668;22;45339;-90
2023/08/27 03:50:36;;;;;;;;;2.00;0.33;;;;;15.69;72.95;100416.34;6217379;22;45366;-88
2023/08/27 03:53:03;;;;;;;;;1.00;1.00;;;;;15.55;73.04;100379.88;6221246;22;44780;-89
2023/08/27 03:55:28;;;;;;;;;2.00;2.00;;;;;15.40;72.81;100353.47;6220859;22;46512;-86
2023/08/27 03:57:54;;;;;;;;;1.00;1.00;;;;;15.24;72.96;100348.50;6218032;22;45178;-88
2023/08/27 04:00:20;;;;;;;;;3.00;1.67;;;;;15.52;72.48;100388.19;6216219;22;45169;-87
2023/08/27 04:02:45;;;;;;;;;1.33;1.33;;;;;15.32;72.73;100352.25;6215820;22;45513;-87
2023/08/27 04:05:11;;;;;;;;;1.00;1.00;;;;;15.44;72.20;100365.63;6218704;22;46125;-88
2023/08/27 04:07:36;;;;;;;;;3.00;1.00;;;;;15.29;71.78;100336.41;6220958;22;45144;-87
2023/08/27 04:10:04;;;;;;;;;1.00;1.00;;;;;15.51;71.82;100377.59;6190368;22;45623;-89
2023/08/27 04:12:30;;;;;;;;;4.67;2.00;;;;;15.48;72.28;100377.81;6218705;22;45602;-87
2023/08/27 04:14:58;;;;;;;;;3.00;1.67;;;;;15.62;72.28;100416.00;6215343;22;46140;-88
2023/08/27 04:17:24;;;;;;;;;1.00;1.00;;;;;15.70;71.73;100422.56;6215004;22;45280;-88
2023/08/27 04:19:49;;;;;;;;;1.67;1.00;;;;;15.73;71.98;100444.59;6191727;22;45136;-89
2023/08/27 04:22:14;;;;;;;;;1.00;1.00;;;;;15.38;72.25;100384.91;6217137;22;60133;-87
2023/08/27 04:24:41;;;;;;;;;3.00;1.00;;;;;15.60;72.88;100423.28;6215041;22;45257;-88
2023/08/27 04:27:07;;;;;;;;;1.00;1.00;;;;;15.59;72.59;100436.78;6215071;22;45375;-89
2023/08/27 04:29:32;;;;;;;;;1.00;1.00;;;;;15.42;72.61;100403.28;6216263;22;45247;-91
2023/08/27 04:31:57;;;;;;;;;2.67;1.67;;;;;15.40;72.75;100405.25;6215247;22;45432;-87
2023/08/27 04:34:23;;;;;;;;;1.00;1.00;;;;;15.15;71.97;100352.72;6217360;22;46561;-85
2023/08/27 04:36:48;;;;;;;;;3.00;1.67;;;;;15.32;72.38;100399.63;6194524;22;45186;-89
2023/08/27 04:39:13;;;;;;;;;1.00;1.00;;;;;15.16;72.22;100378.53;6219101;22;60347;-89
2023/08/27 04:41:40;;;;;;;;;3.67;1.00;;;;;15.06;72.23;100361.47;6223612;22;45250;-87
2023/08/27 04:44:06;;;;;;;;;0.67;0.33;;;;;15.24;72.99;100388.66;6217889;22;45312;-89
2023/08/27 04:46:32;;;;;;;;;2.33;1.00;;;;;15.23;72.20;100394.97;6189550;22;45266;-87
2023/08/27 04:48:57;;;;;;;;;1.33;1.33;;;;;15.48;72.71;100444.81;6216818;22;45142;-89
2023/08/27 04:51:26;;;;;;;;;1.00;1.00;;;;;15.37;72.72;100434.13;6217349;22;45240;-88
2023/08/27 04:53:53;;;;;;;;;0.67;0.67;;;;;15.42;73.25;100456.88;6218647;22;45411;-89
2023/08/27 04:56:18;;;;;;;;;0.00;0.00;;;;;15.29;73.63;100448.94;6218811;22;45217;-90
2023/08/27 04:58:43;;;;;;;;;1.00;1.00;;;;;14.96;73.90;100406.88;6217629;22;45394;-89
2023/08/27 05:01:09;;;;;;;;;1.00;1.00;;;;;15.36;73.94;100457.34;6220556;22;45398;-89
2023/08/27 05:03:34;;;;;;;;;2.00;2.00;;;;;15.35;74.03;100451.13;6224315;22;45356;-88
2023/08/27 05:06:00;;;;;;;;;1.00;1.00;;;;;14.86;74.49;100383.63;6225471;22;45376;-88
2023/08/27 05:08:26;;;;;;;;;1.00;1.00;;;;;14.96;74.74;100400.66;6222647;22;45241;-88
2023/08/27 05:10:51;;;;;;;;;5.00;2.00;;;;;14.96;74.92;100408.69;6220654;22;45367;-91
2023/08/27 05:13:17;;;;;;;;;3.00;1.00;;;;;15.18;74.55;100443.56;6219045;22;45217;-89
2023/08/27 05:15:42;;;;;;;;;1.67;1.67;;;;;14.86;74.47;100399.69;6220885;22;45197;-89
2023/08/27 05:18:09;;;;;;;;;2.00;2.00;;;;;15.04;75.05;100408.97;6223893;22;50539;-90
2023/08/27 05:20:35;;;;;;;;;1.00;1.00;;;;;14.82;74.41;100387.47;6197533;22;45305;-89
2023/08/27 05:23:00;;;;;;;;;2.00;1.00;;;;;14.81;73.49;100385.78;6226807;22;45287;-86
2023/08/27 05:25:26;;;;;;;;;1.33;1.33;;;;;15.23;74.73;100441.38;6233197;22;45174;-88
2023/08/27 05:27:51;;;;;;;;;1.67;1.67;;;;;14.90;74.49;100390.44;6231205;22;44922;-87
2023/08/27 05:30:16;;;;;;;;;3.00;1.00;;;;;15.29;74.67;100453.44;6241200;22;44818;-87
2023/08/27 05:32:43;;;;;;;;;1.00;1.00;;;;;15.32;74.39;100478.16;6213290;22;47331;-83
2023/08/27 05:35:08;;;;;;;;;1.00;1.00;;;;;15.01;74.59;100428.81;6215511;22;45257;-85
2023/08/27 05:37:34;;;;;;;;;1.00;1.00;;;;;15.33;74.83;100466.47;6242986;22;44710;-87
2023/08/27 05:40:00;;;;;;;;;2.67;1.33;;;;;14.99;74.54;100412.00;6242982;22;44798;-87
2023/08/27 05:42:25;;;;;;;;;1.33;1.33;;;;;15.16;74.57;100425.91;6241431;22;44973;-88
2023/08/27 05:44:51;;;;;;;;;1.00;1.00;;;;;15.50;74.29;100464.34;6241692;22;45372;-87
2023/08/27 05:47:17;;;;;;;;;3.67;2.00;;;;;15.29;74.05;100435.53;6236672;22;44713;-86
2023/08/27 05:49:43;;;;;;;;;2.00;2.00;;;;;15.58;74.07;100462.72;6229602;22;45097;-85
2023/08/27 05:52:09;;;;;;;;;1.33;1.33;;;;;15.67;73.49;100471.91;6228736;22;45134;-86
2023/08/27 05:54:34;;;;;;;;;1.00;1.00;;;;;15.73;72.74;100459.84;6221621;22;45254;-85
2023/08/27 05:57:00;;;;;;;;;1.00;1.00;;;;;15.59;72.53;100428.75;6221445;22;52057;-89
2023/08/27 05:59:26;;;;;;;;;2.00;1.00;;;;;15.95;72.03;100472.41;6218043;22;45483;-88
2023/08/27 06:01:51;;;;;;;;;1.00;1.00;;;;;15.86;71.55;100434.59;6217628;22;45354;-86
2023/08/27 06:04:16;;;;;;;;;3.00;2.00;;;;;16.10;71.09;100465.78;6215515;22;65414;-87
2023/08/27 06:06:42;;;;;;;;;2.00;2.00;;;;;15.66;70.59;100368.34;6217311;22;45428;-90
2023/08/27 06:09:07;;;;;;;;;1.00;1.00;;;;;16.00;70.02;100400.44;6217354;22;45278;-89
2023/08/27 06:11:33;;;;;;;;;3.00;2.00;;;;;16.41;69.46;100473.06;6217650;22;45261;-89
2023/08/27 06:13:58;;;;;;;;;1.00;1.00;;;;;16.59;69.26;100475.19;6218253;22;45350;-89
2023/08/27 06:16:24;;;;;;;;;2.00;2.00;;;;;16.65;69.20;100477.34;6190120;22;46423;-89
2023/08/27 06:18:50;;;;;;;;;1.00;1.00;;;;;16.63;68.72;100455.16;6217202;22;45339;-86
2023/08/27 06:21:17;;;;;;;;;1.00;1.00;;;;;16.44;68.26;100424.47;6213430;22;45892;-87
2023/08/27 06:23:43;;;;;;;;;3.00;1.00;;;;;16.79;68.18;100477.09;6163695;22;45264;-88
2023/08/27 06:26:08;;;;;;;;;0.67;0.67;;;;;16.67;68.11;100472.75;6215348;22;45303;-88
2023/08/27 06:28:34;;;;;;;;;2.67;1.00;;;;;17.01;67.18;100482.38;6215152;22;45150;-86
2023/08/27 06:31:00;;;;;;;;;1.00;1.00;;;;;17.51;65.58;100479.03;6188181;22;47032;-88
2023/08/27 06:33:26;;;;;;;;;2.33;1.00;;;;;17.32;65.15;100452.88;6216018;22;45126;-86
2023/08/27 06:35:51;;;;;;;;;2.00;2.00;;;;;17.32;65.70;100477.09;6218013;22;45267;-86
2023/08/27 06:38:17;;;;;;;;;3.00;1.33;;;;;17.17;66.00;100465.78;6220405;22;45554;-88
2023/08/27 06:40:43;;;;;;;;;2.67;1.00;;;;;16.98;66.02;100450.41;6217874;22;45241;-86
2023/08/27 06:43:09;;;;;;;;;1.33;1.33;;;;;17.23;66.05;100481.41;6215548;22;45360;-86
2023/08/27 06:45:35;;;;;;;;;1.00;1.00;;;;;16.99;65.89;100438.66;6188043;22;45415;-88
2023/08/27 06:48:00;;;;;;;;;2.67;1.00;;;;;17.29;65.56;100477.31;6215096;22;45539;-86
2023/08/27 06:50:26;;;;;;;;;1.67;1.67;;;;;17.33;65.56;100476.94;6211237;22;46099;-86
2023/08/27 06:52:51;;;;;;;;;1.00;1.00;;;;;17.42;65.58;100491.41;6211118;22;45410;-85
2023/08/27 06:55:16;;;;;;;;;1.00;1.00;;;;;17.03;65.23;100428.50;6212023;22;45247;-85
2023/08/27 06:57:42;;;;;;;;;0.67;0.67;;;;;17.46;65.11;100475.88;6213362;22;57624;-84
2023/08/27 07:00:07;;;;;;;;;2.33;1.00;;;;;17.69;64.58;100499.81;6213294;22;54411;-85
2023/08/27 07:02:33;;;;;;;;;1.00;1.00;;;;;17.50;64.36;100462.03;6213664;22;45248;-85
2023/08/27 07:04:59;;;;;;;;;1.00;1.00;;;;;17.78;64.17;100502.69;6213866;22;45170;-85
2023/08/27 07:07:25;;;;;;;;;3.00;1.00;;;;;18.24;63.21;100499.47;6213987;22;45189;-86
2023/08/27 07:09:51;;;;;;;;;5.00;2.67;;;;;18.06;63.01;100477.72;6214500;22;46312;-84
2023/08/27 07:12:18;;;;;;;;;2.00;2.00;;;;;18.12;62.79;100506.81;6217711;22;45192;-84
2023/08/27 07:14:44;;;;;;;;;2.00;0.00;;;;;18.37;62.07;100510.84;6193382;22;45312;-85
2023/08/27 07:17:09;;;;;;;;;2.00;2.00;;;;;17.95;61.38;100440.16;6187117;22;45298;-84
2023/08/27 07:19:34;;;;;;;;;2.33;2.00;;;;;18.18;61.62;100478.47;6186992;22;47219;-85
2023/08/27 07:22:00;;;;;;;;;1.33;1.00;;;;;18.37;61.65;100510.84;6213667;22;63889;-84
2023/08/27 07:24:26;;;;;;;;;3.00;3.00;;;;;18.39;61.63;100513.41;6214787;22;45327;-84
2023/08/27 07:26:51;;;;;;;;;0.00;0.00;;;;;18.57;61.28;100520.66;6217101;22;45345;-84
2023/08/27 07:29:17;;;;;;;;;2.00;2.00;;;;;18.58;61.00;100516.13;6217301;22;45738;-82
2023/08/27 07:31:42;;;;;;;;;2.00;2.00;;;;;18.56;61.00;100516.25;6214712;22;45319;-82
2023/08/27 07:34:07;;;;;;;;;1.00;1.00;;;;;18.52;61.12;100501.38;6214880;22;45407;-86
2023/08/27 07:36:33;;;;;;;;;1.00;1.00;;;;;18.67;60.15;100515.31;6215193;22;45272;-82
2023/08/27 07:38:58;;;;;;;;;4.67;1.00;;;;;18.30;61.35;100496.22;6215661;22;45877;-86
2023/08/27 07:41:23;;;;;;;;;2.00;2.00;;;;;18.46;61.27;100515.38;6214158;22;61283;-83
2023/08/27 07:43:49;;;;;;;;;2.67;1.00;;;;;18.52;61.13;100514.84;6186787;22;45771;-83
2023/08/27 07:46:14;;;;;;;;;1.00;1.00;;;;;18.58;60.63;100524.19;6213540;22;45478;-83
2023/08/27 07:48:40;;;;;;;;;3.00;2.00;;;;;18.44;60.77;100509.28;6186343;22;46814;-84
2023/08/27 07:51:06;;;;;;;;;3.00;2.00;;;;;18.48;61.12;100507.16;6213848;22;45292;-84
2023/08/27 07:53:31;;;;;;;;;2.00;2.00;;;;;18.62;60.66;100500.53;6218238;22;45193;-83
2023/08/27 07:55:57;;;;;;;;;2.00;2.00;;;;;18.76;60.52;100510.94;6215084;22;45447;-83
2023/08/27 07:58:22;;;;;;;;;1.67;1.67;;;;;18.63;59.98;100500.41;6216392;22;45225;-83
2023/08/27 08:00:48;;;;;;;;;3.00;1.00;;;;;18.71;60.69;100519.44;6213462;22;45296;-87
2023/08/27 08:03:13;;;;;;;;;1.00;1.00;;;;;18.85;60.67;100510.94;6213121;22;45495;-85
2023/08/27 08:05:38;;;;;;;;;3.00;1.00;;;;;18.93;60.39;100522.88;6213896;22;45438;-83
2023/08/27 08:08:04;;;;;;;;;2.00;2.00;;;;;19.04;59.79;100520.88;6212672;22;46018;-82
2023/08/27 08:10:29;;;;;;;;;1.00;0.67;;;;;19.16;59.64;100521.59;6213011;22;45281;-83
2023/08/27 08:12:54;;;;;;;;;2.00;2.00;;;;;19.23;58.82;100525.41;6213294;22;45391;-84
2023/08/27 08:15:20;;;;;;;;;1.67;1.33;;;;;19.33;58.73;100523.56;6214630;22;54569;-84
2023/08/27 08:17:45;;;;;;;;;1.67;1.67;;;;;19.18;58.46;100489.94;6214207;22;45276;-83
2023/08/27 08:20:12;;;;;;;;;2.00;2.00;;;;;19.30;58.39;100507.66;6214942;22;45355;-86
2023/08/27 08:22:39;;;;;;;;;4.00;3.00;;;;;19.36;58.55;100512.47;6215119;22;45162;-84
2023/08/27 08:25:05;;;;;;;;;4.00;2.00;;;;;19.23;58.16;100498.44;6186077;22;45331;-85
2023/08/27 08:27:31;;;;;;;;;4.00;1.00;;;;;19.38;58.30;100512.31;6213604;22;46158;-85
2023/08/27 08:29:56;;;;;;;;;0.00;0.00;;;;;19.21;58.17;100513.06;6215025;22;45246;-85
2023/08/27 08:32:21;;;;;;;;;1.67;0.33;;;;;19.13;58.57;100492.19;6215763;22;45269;-86
2023/08/27 08:34:48;;;;;;;;;2.00;2.00;;;;;19.17;58.04;100509.81;6188215;22;45362;-84
2023/08/27 08:37:15;;;;;;;;;2.00;0.00;;;;;18.88;58.66;100496.34;6192591;22;46381;-86
2023/08/27 08:39:41;;;;;;;;;2.67;2.00;;;;;18.72;59.09;100487.97;6230111;22;45408;-86
2023/08/27 08:42:44;;;;;;;;;2.33;1.67;;;;;19.08;58.88;100511.50;6210394;22;44730;-89
2023/08/27 08:45:26;;;;;;;;;3.00;1.67;;;;;19.17;58.41;100482.84;6203803;22;45587;-85
2023/08/27 08:47:56;;;;;;;;;1.67;1.67;;;;;19.44;57.87;100500.97;6202803;22;57854;-87
2023/08/27 08:50:22;;;;;;;;;1.00;1.00;;;;;19.44;57.22;100477.56;6208007;22;45202;-86
2023/08/27 08:52:50;;;;;;;;;2.00;2.00;;;;;19.33;56.70;100461.53;6200554;22;44753;-87
2023/08/27 08:55:16;;;;;;;;;2.00;2.00;;;;;19.53;56.69;100458.78;6224135;22;45149;-85
2023/08/27 08:57:58;;;;;;;;;1.00;1.00;;;;;19.91;56.46;100504.53;6232393;22;45661;-90
2023/08/27 09:00:25;;;;;;;;;0.00;0.00;;;;;19.97;55.70;100493.16;6205006;22;45274;-88
2023/08/27 09:02:51;;;;;;;;;2.67;2.00;;;;;19.68;55.37;100444.72;6227479;22;45262;-89
2023/08/27 09:05:17;;;;;;;;;3.00;2.00;;;;;19.64;54.76;100401.97;6222142;22;45307;-84
2023/08/27 09:07:45;;;;;;;;;1.33;1.33;;;;;20.04;54.54;100483.44;6218678;22;45335;-85
2023/08/27 09:10:11;;;;;;;;;1.00;0.00;;;;;19.78;54.48;100452.75;6216837;22;45234;-88
2023/08/27 09:12:41;;;;;;;;;2.00;2.00;;;;;19.74;55.25;100475.63;6218705;22;45363;-85
2023/08/27 09:15:10;;;;;;;;;1.00;1.00;;;;;19.91;54.78;100509.09;6219568;22;45525;-85
2023/08/27 09:17:39;;;;;;;;;2.00;1.00;;;;;20.02;55.07;100507.06;6216712;22;45345;-83
2023/08/27 09:20:06;;;;;;;;;2.00;1.00;;;;;20.02;54.74;100457.63;6223398;22;45366;-85
2023/08/27 09:22:35;;;;;;;;;2.67;1.00;;;;;20.53;53.95;100502.13;6215956;22;45234;-84
2023/08/27 09:25:00;;;;;;;;;0.67;0.67;;;;;20.22;53.53;100490.78;6216051;22;45404;-86
2023/08/27 09:27:27;;;;;;;;;1.00;1.00;;;;;20.22;54.01;100507.81;6186639;22;47100;-84
2023/08/27 09:29:54;;;;;;;;;2.00;2.00;;;;;19.95;53.85;100478.13;6188008;22;45366;-85
2023/08/27 09:32:23;;;;;;;;;1.00;1.00;;;;;20.21;53.43;100502.56;6215803;22;45175;-84
2023/08/27 09:34:49;;;;;;;;;4.00;2.00;;;;;20.20;53.76;100487.38;6217339;22;45295;-86
2023/08/27 09:37:15;;;;;;;;;2.67;2.00;;;;;20.27;53.44;100524.41;6216788;22;45300;-86
2023/08/27 09:39:44;;;;;;;;;2.00;2.00;;;;;20.21;52.97;100526.88;6212727;22;45257;-82
2023/08/27 09:42:11;;;;;;;;;2.67;1.00;;;;;20.37;53.04;100518.97;6213590;22;45300;-84
2023/08/27 09:44:37;;;;;;;;;2.00;2.00;;;;;20.55;51.62;100525.28;6214061;22;45359;-84
2023/08/27 09:47:04;;;;;;;;;1.67;1.67;;;;;20.64;51.34;100528.09;6186347;22;46834;-84
2023/08/27 09:49:29;;;;;;;;;3.00;1.67;;;;;20.69;51.17;100541.97;6214307;22;45336;-84
2023/08/27 09:51:59;;;;;;;;;3.00;2.00;;;;;20.79;51.10;100537.38;6215596;22;45374;-86
2023/08/27 09:54:29;;;;;;;;;1.67;1.67;;;;;20.92;50.96;100525.16;6188235;22;45704;-85
2023/08/27 09:57:02;;;;;;;;;2.00;2.00;;;;;20.94;49.94;100513.34;6216582;22;45655;-87
2023/08/27 09:59:30;;;;;;;;;0.67;0.67;;;;;20.99;49.79;100529.97;6193174;22;45208;-89
2023/08/27 10:01:56;;;;;;;;;3.00;2.00;;;;;20.94;51.01;100525.00;6197790;22;45371;-89
2023/08/27 10:04:22;;;;;;;;;1.67;1.67;;;;;20.60;50.12;100431.13;6194488;22;45388;-88
2023/08/27 10:06:47;;;;;;;;;5.00;2.00;;;;;21.25;50.37;100524.63;6191660;22;47253;-86
2023/08/27 10:09:14;;;;;;;;;1.67;1.33;;;;;20.95;49.67;100475.34;6191252;22;45477;-87
2023/08/27 10:11:44;;;;;;;;;0.67;0.67;;;;;21.15;49.16;100522.84;6197538;22;45324;-89
2023/08/27 10:14:11;;;;;;;;;0.67;0.67;;;;;21.17;49.81;100531.66;6199939;22;45407;-86
2023/08/27 10:16:39;;;;;;;;;0.33;0.33;;;;;20.83;49.08;100466.66;6198429;22;45378;-89
2023/08/27 10:19:08;;;;;;;;;1.00;1.00;;;;;20.54;49.61;100452.50;6201498;22;45198;-86
2023/08/27 10:21:36;;;;;;;;;0.67;0.67;;;;;20.43;49.41;100472.47;6196244;22;45320;-87
2023/08/27 10:24:05;;;;;;;;;2.00;1.00;;;;;20.59;49.72;100502.38;6226415;22;45354;-89
2023/08/27 10:26:31;;;;;;;;;1.00;1.00;;;;;20.28;49.53;100455.06;6198829;22;45378;-89
2023/08/27 10:28:58;;;;;;;;;1.00;1.00;;;;;20.78;49.79;100536.50;6197075;22;45317;-87
2023/08/27 10:31:26;;;;;;;;;2.00;0.33;;;;;20.66;49.53;100485.53;6205630;22;45339;-86
2023/08/27 10:33:53;;;;;;;;;1.00;1.00;;;;;20.69;49.61;100452.78;6232723;22;44785;-81
2023/08/27 10:36:25;;;;;;;;;1.00;1.00;;;;;21.26;49.34;100488.50;6233049;22;46542;-84
2023/08/27 10:38:55;;;;;;;;;1.50;1.00;;;;;21.62;48.71;100557.75;6210459;22;44856;-87
2023/08/27 10:41:25;;;;;;;;;2.00;2.00;;;;;21.13;48.82;100484.31;6177154;22;45332;-84
2023/08/27 10:43:52;;;;;;;;;1.00;1.00;;;;;21.00;48.86;100470.34;6151112;23;44832;-83
2023/08/27 10:46:21;;;;;;;;;0.67;0.67;;;;;20.81;49.46;100484.00;6174517;23;45317;-87
2023/08/27 10:48:52;;;;;;;;;0.67;0.67;;;;;20.86;50.01;100509.56;6165303;23;45321;-87
2023/08/27 10:51:21;;;;;;;;;3.50;2.75;;;;;21.17;49.32;100541.63;6136443;23;45211;-87
2023/08/27 10:53:49;;;;;;;;;2.00;2.00;;;;;21.42;48.43;100543.56;6161209;23;45426;-84
2023/08/27 10:56:41;;;;;;;;;1.00;1.00;;;;;21.62;46.79;100538.81;6134163;23;47277;-86
2023/08/27 10:59:24;;;;;;;;;1.00;1.00;;;;;21.69;44.53;100523.63;6163447;23;44660;-87
2023/08/27 11:02:07;;;;;;;;;1.00;1.00;;;;;22.02;44.63;100534.66;6134523;23;45194;-85
2023/08/27 11:04:38;;;;;;;;;1.50;0.50;;;;;22.24;44.22;100535.97;6157483;23;45335;-86
2023/08/27 11:07:17;;;;;;;;;2.00;0.50;;;;;22.67;43.64;100527.66;6157534;23;46031;-87
2023/08/27 11:09:55;;;;;;;;;1.00;1.00;;;;;23.27;42.44;100517.59;6130161;23;45408;-87
2023/08/27 11:12:26;;;;;;;;;1.25;0.25;;;;;23.70;42.38;100481.06;6131100;23;45313;-89
2023/08/27 11:14:54;;;;;;;;;1.00;1.00;;;;;24.00;40.31;100468.63;6132255;23;45410;-87
2023/08/27 11:17:24;;;;;;;;;0.00;0.00;;;;;23.91;39.58;100447.94;6155814;23;47184;-87
2023/08/27 11:19:53;;;;;;;;;0.75;0.75;;;;;23.79;40.74;100463.75;6175341;23;44731;-85
2023/08/27 11:22:20;;;;;;;;;2.00;1.00;;;;;23.68;40.20;100502.13;6139827;23;45137;-85